sensor_id;sensor_type;location;lat;lon;timestamp;pressure;altitude;pressure_sealevel;temperature
24278;BMP280;12394;42.692;23.314;2024-03-25T00:01:59;93792.47;;;4.17
24278;BMP280;12394;42.692;23.314;2024-03-25T00:07:47;93775.88;;;3.76
24278;BMP280;12394;42.692;23.314;2024-03-25T00:10:13;93738.94;;;3.40
24278;BMP280;12394;42.692;23.314;2024-03-25T00:12:38;93789.91;;;3.68
24278;BMP280;12394;42.692;23.314;2024-03-25T00:15:04;93779.56;;;3.68
24278;BMP280;12394;42.692;23.314;2024-03-25T00:17:30;93757.75;;;3.69
24278;BMP280;12394;42.692;23.314;2024-03-25T00:19:56;93748.53;;;3.68
24278;BMP280;12394;42.692;23.314;2024-03-25T00:22:22;93763.28;;;3.85
24278;BMP280;12394;42.692;23.314;2024-03-25T00:24:50;93752.56;;;3.69
24278;BMP280;12394;42.692;23.314;2024-03-25T00:27:16;93769.22;;;3.75
24278;BMP280;12394;42.692;23.314;2024-03-25T00:29:42;93764.75;;;3.82
24278;BMP280;12394;42.692;23.314;2024-03-25T00:32:08;93748.88;;;3.73
24278;BMP280;12394;42.692;23.314;2024-03-25T00:34:33;93746.28;;;3.84
24278;BMP280;12394;42.692;23.314;2024-03-25T00:37:00;93741.84;;;3.88
24278;BMP280;12394;42.692;23.314;2024-03-25T00:39:25;93743.31;;;3.96
24278;BMP280;12394;42.692;23.314;2024-03-25T00:41:52;93746.97;;;4.09
24278;BMP280;12394;42.692;23.314;2024-03-25T00:44:17;93744.00;;;4.14
24278;BMP280;12394;42.692;23.314;2024-03-25T00:46:43;93743.28;;;4.17
24278;BMP280;12394;42.692;23.314;2024-03-25T00:49:09;93744.38;;;4.27
24278;BMP280;12394;42.692;23.314;2024-03-25T00:51:35;93744.34;;;4.30
24278;BMP280;12394;42.692;23.314;2024-03-25T00:54:01;93733.63;;;4.35
24278;BMP280;12394;42.692;23.314;2024-03-25T00:56:26;93708.56;;;4.08
24278;BMP280;12394;42.692;23.314;2024-03-25T00:58:52;93735.03;;;4.47
24278;BMP280;12394;42.692;23.314;2024-03-25T01:01:17;93746.19;;;4.40
24278;BMP280;12394;42.692;23.314;2024-03-25T01:03:43;93736.91;;;4.46
24278;BMP280;12394;42.692;23.314;2024-03-25T01:06:08;93727.28;;;4.54
24278;BMP280;12394;42.692;23.314;2024-03-25T01:08:34;93703.63;;;4.48
24278;BMP280;12394;42.692;23.314;2024-03-25T01:11:00;93699.50;;;4.58
24278;BMP280;12394;42.692;23.314;2024-03-25T01:13:25;93696.16;;;4.61
24278;BMP280;12394;42.692;23.314;2024-03-25T01:15:51;93686.88;;;4.67
24278;BMP280;12394;42.692;23.314;2024-03-25T01:18:17;93697.88;;;4.82
24278;BMP280;12394;42.692;23.314;2024-03-25T01:20:43;93700.06;;;4.87
24278;BMP280;12394;42.692;23.314;2024-03-25T01:23:09;93698.56;;;4.93
24278;BMP280;12394;42.692;23.314;2024-03-25T01:25:35;93697.06;;;4.96
24278;BMP280;12394;42.692;23.314;2024-03-25T01:28:00;93700.00;;;5.01
24278;BMP280;12394;42.692;23.314;2024-03-25T01:30:27;93708.09;;;5.10
24278;BMP280;12394;42.692;23.314;2024-03-25T01:32:54;93711.78;;;5.13
24278;BMP280;12394;42.692;23.314;2024-03-25T01:35:19;93706.50;;;5.23
24278;BMP280;12394;42.692;23.314;2024-03-25T01:37:45;93710.19;;;5.29
24278;BMP280;12394;42.692;23.314;2024-03-25T01:40:11;93724.19;;;5.39
24278;BMP280;12394;42.692;23.314;2024-03-25T01:42:37;93731.59;;;5.37
24278;BMP280;12394;42.692;23.314;2024-03-25T01:45:03;93726.72;;;5.46
24278;BMP280;12394;42.692;23.314;2024-03-25T01:47:31;93727.41;;;5.54
24278;BMP280;12394;42.692;23.314;2024-03-25T01:49:59;93719.28;;;5.52
24278;BMP280;12394;42.692;23.314;2024-03-25T01:52:25;93711.16;;;5.46
24278;BMP280;12394;42.692;23.314;2024-03-25T01:54:52;93707.81;;;5.49
24278;BMP280;12394;42.692;23.314;2024-03-25T01:57:18;93723.31;;;5.56
24278;BMP280;12394;42.692;23.314;2024-03-25T01:59:45;93730.00;;;5.54
24278;BMP280;12394;42.692;23.314;2024-03-25T02:02:11;93728.34;;;5.26
24278;BMP280;12394;42.692;23.314;2024-03-25T02:04:39;93720.31;;;5.10
24278;BMP280;12394;42.692;23.314;2024-03-25T02:07:07;93748.81;;;5.13
24278;BMP280;12394;42.692;23.314;2024-03-25T02:09:33;93744.75;;;5.09
24278;BMP280;12394;42.692;23.314;2024-03-25T02:12:00;93759.59;;;5.01
24278;BMP280;12394;42.692;23.314;2024-03-25T02:14:26;93725.31;;;4.76
24278;BMP280;12394;42.692;23.314;2024-03-25T02:16:52;93757.06;;;4.87
24278;BMP280;12394;42.692;23.314;2024-03-25T02:19:18;93743.78;;;4.78
24278;BMP280;12394;42.692;23.314;2024-03-25T02:21:44;93739.69;;;4.84
24278;BMP280;12394;42.692;23.314;2024-03-25T02:27:31;93739.41;;;4.64
24278;BMP280;12394;42.692;23.314;2024-03-25T02:30:10;93730.94;;;4.60
24278;BMP280;12394;42.692;23.314;2024-03-25T02:32:40;93741.63;;;4.69
24278;BMP280;12394;42.692;23.314;2024-03-25T02:35:09;93711.44;;;4.34
24278;BMP280;12394;42.692;23.314;2024-03-25T02:37:37;93744.66;;;4.54
24278;BMP280;12394;42.692;23.314;2024-03-25T02:40:04;93745.75;;;4.53
24278;BMP280;12394;42.692;23.314;2024-03-25T02:42:32;93708.84;;;4.27
24278;BMP280;12394;42.692;23.314;2024-03-25T02:52:15;93746.19;;;4.40
24278;BMP280;12394;42.692;23.314;2024-03-25T02:54:41;93752.81;;;4.41
24278;BMP280;12394;42.692;23.314;2024-03-25T03:02:58;93764.31;;;4.40
24278;BMP280;12394;42.692;23.314;2024-03-25T03:05:24;93756.53;;;4.40
24278;BMP280;12394;42.692;23.314;2024-03-25T03:07:49;93735.44;;;4.38
24278;BMP280;12394;42.692;23.314;2024-03-25T03:10:15;93750.56;;;4.51
24278;BMP280;12394;42.692;23.314;2024-03-25T03:12:41;93767.53;;;4.66
24278;BMP280;12394;42.692;23.314;2024-03-25T03:15:07;93752.41;;;4.57
24278;BMP280;12394;42.692;23.314;2024-03-25T03:17:32;93754.22;;;4.60
24278;BMP280;12394;42.692;23.314;2024-03-25T03:19:58;93761.59;;;4.69
24278;BMP280;12394;42.692;23.314;2024-03-25T03:22:23;93751.59;;;4.74
24278;BMP280;12394;42.692;23.314;2024-03-25T03:24:49;93749.03;;;4.71
24278;BMP280;12394;42.692;23.314;2024-03-25T03:27:14;93762.41;;;4.59
24278;BMP280;12394;42.692;23.314;2024-03-25T03:29:40;93766.81;;;4.62
24278;BMP280;12394;42.692;23.314;2024-03-25T03:32:05;93787.91;;;4.60
24278;BMP280;12394;42.692;23.314;2024-03-25T03:34:31;93794.53;;;4.72
24278;BMP280;12394;42.692;23.314;2024-03-25T03:36:56;93794.53;;;4.72
24278;BMP280;12394;42.692;23.314;2024-03-25T03:39:22;93793.72;;;4.82
24278;BMP280;12394;42.692;23.314;2024-03-25T03:41:47;93792.59;;;4.86
24278;BMP280;12394;42.692;23.314;2024-03-25T03:44:13;93798.56;;;4.83
24278;BMP280;12394;42.692;23.314;2024-03-25T03:46:40;93806.28;;;4.94
24278;BMP280;12394;42.692;23.314;2024-03-25T03:49:05;93783.78;;;4.77
24278;BMP280;12394;42.692;23.314;2024-03-25T03:51:31;93811.16;;;4.81
24278;BMP280;12394;42.692;23.314;2024-03-25T03:53:56;93804.47;;;4.84
24278;BMP280;12394;42.692;23.314;2024-03-25T03:56:22;93782.66;;;4.74
24278;BMP280;12394;42.692;23.314;2024-03-25T03:58:47;93791.16;;;4.85
24278;BMP280;12394;42.692;23.314;2024-03-25T04:01:18;93790.03;;;4.83
24278;BMP280;12394;42.692;23.314;2024-03-25T04:03:44;93816.31;;;4.85
24278;BMP280;12394;42.692;23.314;2024-03-25T04:06:11;93825.59;;;4.79
24278;BMP280;12394;42.692;23.314;2024-03-25T04:08:39;93828.56;;;4.74
24278;BMP280;12394;42.692;23.314;2024-03-25T04:11:05;93824.13;;;4.74
24278;BMP280;12394;42.692;23.314;2024-03-25T04:13:32;93828.88;;;4.90
24278;BMP280;12394;42.692;23.314;2024-03-25T04:16:01;93833.34;;;4.86
24278;BMP280;12394;42.692;23.314;2024-03-25T04:18:28;93834.13;;;4.72
24278;BMP280;12394;42.692;23.314;2024-03-25T04:20:53;93836.31;;;4.81
24278;BMP280;12394;42.692;23.314;2024-03-25T04:23:19;93848.50;;;4.84
24278;BMP280;12394;42.692;23.314;2024-03-25T04:25:44;93851.13;;;4.80
24278;BMP280;12394;42.692;23.314;2024-03-25T04:28:10;93847.81;;;4.76
24278;BMP280;12394;42.692;23.314;2024-03-25T04:30:35;93856.28;;;4.87
24278;BMP280;12394;42.692;23.314;2024-03-25T04:33:01;93850.75;;;4.85
24278;BMP280;12394;42.692;23.314;2024-03-25T04:35:27;93858.47;;;4.96
24278;BMP280;12394;42.692;23.314;2024-03-25T04:37:53;93860.69;;;4.94
24278;BMP280;12394;42.692;23.314;2024-03-25T04:40:19;93878.84;;;4.87
24278;BMP280;12394;42.692;23.314;2024-03-25T04:42:45;93877.41;;;4.79
24278;BMP280;12394;42.692;23.314;2024-03-25T04:45:10;93894.78;;;4.82
24278;BMP280;12394;42.692;23.314;2024-03-25T04:47:37;93899.22;;;4.88
24278;BMP280;12394;42.692;23.314;2024-03-25T04:50:03;93888.84;;;4.88
24278;BMP280;12394;42.692;23.314;2024-03-25T04:52:28;93892.53;;;4.87
24278;BMP280;12394;42.692;23.314;2024-03-25T04:54:54;93899.94;;;4.92
24278;BMP280;12394;42.692;23.314;2024-03-25T04:57:19;93879.25;;;4.78
24278;BMP280;12394;42.692;23.314;2024-03-25T04:59:45;93891.84;;;4.73
24278;BMP280;12394;42.692;23.314;2024-03-25T05:02:10;93897.38;;;4.78
24278;BMP280;12394;42.692;23.314;2024-03-25T05:04:36;93897.75;;;4.84
24278;BMP280;12394;42.692;23.314;2024-03-25T05:07:01;93896.25;;;4.83
24278;BMP280;12394;42.692;23.314;2024-03-25T05:09:27;93902.91;;;4.91
24278;BMP280;12394;42.692;23.314;2024-03-25T05:11:52;93904.38;;;4.96
24278;BMP280;12394;42.692;23.314;2024-03-25T05:14:18;93904.72;;;5.01
24278;BMP280;12394;42.692;23.314;2024-03-25T05:16:43;93902.16;;;4.94
24278;BMP280;12394;42.692;23.314;2024-03-25T05:19:09;93905.81;;;5.07
24278;BMP280;12394;42.692;23.314;2024-03-25T05:21:34;93909.16;;;5.11
24278;BMP280;12394;42.692;23.314;2024-03-25T05:23:59;93899.50;;;5.15
24278;BMP280;12394;42.692;23.314;2024-03-25T05:26:25;93896.84;;;5.29
24278;BMP280;12394;42.692;23.314;2024-03-25T05:28:57;93921.22;;;5.46
24278;BMP280;12394;42.692;23.314;2024-03-25T05:31:23;93913.84;;;5.37
24278;BMP280;12394;42.692;23.314;2024-03-25T05:33:49;93922.06;;;5.22
24278;BMP280;12394;42.692;23.314;2024-03-25T05:36:15;93916.16;;;5.21
24278;BMP280;12394;42.692;23.314;2024-03-25T05:38:41;93933.16;;;5.29
24278;BMP280;12394;42.692;23.314;2024-03-25T05:41:09;93934.25;;;5.28
24278;BMP280;12394;42.692;23.314;2024-03-25T05:43:35;93938.72;;;5.24
24278;BMP280;12394;42.692;23.314;2024-03-25T05:46:01;93937.25;;;5.23
24278;BMP280;12394;42.692;23.314;2024-03-25T05:48:26;93945.72;;;5.34
24278;BMP280;12394;42.692;23.314;2024-03-25T05:51:01;93949.81;;;5.32
24278;BMP280;12394;42.692;23.314;2024-03-25T05:53:28;93953.53;;;5.31
24278;BMP280;12394;42.692;23.314;2024-03-25T05:55:53;93941.69;;;5.23
24278;BMP280;12394;42.692;23.314;2024-03-25T05:58:19;93943.81;;;5.46
24278;BMP280;12394;42.692;23.314;2024-03-25T06:00:47;93956.00;;;5.59
24278;BMP280;12394;42.692;23.314;2024-03-25T06:03:12;93966.66;;;5.90
24278;BMP280;12394;42.692;23.314;2024-03-25T06:05:38;93945.56;;;5.70
24278;BMP280;12394;42.692;23.314;2024-03-25T06:08:03;93964.38;;;5.95
24278;BMP280;12394;42.692;23.314;2024-03-25T06:10:29;93968.78;;;6.02
24278;BMP280;12394;42.692;23.314;2024-03-25T06:12:54;93984.81;;;5.90
24278;BMP280;12394;42.692;23.314;2024-03-25T06:15:20;93987.75;;;5.92
24278;BMP280;12394;42.692;23.314;2024-03-25T06:17:45;93981.03;;;6.01
24278;BMP280;12394;42.692;23.314;2024-03-25T06:20:11;93992.13;;;6.12
24278;BMP280;12394;42.692;23.314;2024-03-25T06:22:36;93952.19;;;5.85
24278;BMP280;12394;42.692;23.314;2024-03-25T06:25:02;93990.22;;;6.16
24278;BMP280;12394;42.692;23.314;2024-03-25T06:27:27;94002.84;;;6.14
24278;BMP280;12394;42.692;23.314;2024-03-25T06:29:53;93997.63;;;6.21
24278;BMP280;12394;42.692;23.314;2024-03-25T06:32:38;94007.13;;;6.42
24278;BMP280;12394;42.692;23.314;2024-03-25T06:35:22;94004.81;;;6.55
24278;BMP280;12394;42.692;23.314;2024-03-25T06:37:47;94010.72;;;6.62
24278;BMP280;12394;42.692;23.314;2024-03-25T06:40:13;93994.81;;;6.53
24278;BMP280;12394;42.692;23.314;2024-03-25T06:42:38;94009.44;;;6.85
24278;BMP280;12394;42.692;23.314;2024-03-25T06:45:04;94026.59;;;7.16
24278;BMP280;12394;42.692;23.314;2024-03-25T06:47:29;94034.81;;;7.11
24278;BMP280;12394;42.692;23.314;2024-03-25T06:49:55;94033.50;;;7.33
24278;BMP280;12394;42.692;23.314;2024-03-25T06:52:20;94024.09;;;7.80
24278;BMP280;12394;42.692;23.314;2024-03-25T06:54:46;94053.25;;;8.29
24278;BMP280;12394;42.692;23.314;2024-03-25T06:57:11;94040.66;;;8.54
24278;BMP280;12394;42.692;23.314;2024-03-25T06:59:37;94051.13;;;8.51
24278;BMP280;12394;42.692;23.314;2024-03-25T07:02:02;94053.97;;;8.86
24278;BMP280;12394;42.692;23.314;2024-03-25T07:04:28;94057.94;;;9.41
24278;BMP280;12394;42.692;23.314;2024-03-25T07:06:53;94057.44;;;10.09
24278;BMP280;12394;42.692;23.314;2024-03-25T07:09:19;94047.78;;;10.78
24278;BMP280;12394;42.692;23.314;2024-03-25T07:11:45;94057.34;;;10.68
24278;BMP280;12394;42.692;23.314;2024-03-25T07:14:12;94065.09;;;10.55
24278;BMP280;12394;42.692;23.314;2024-03-25T07:16:37;94068.81;;;11.06
24278;BMP280;12394;42.692;23.314;2024-03-25T07:19:03;94061.22;;;12.02
24278;BMP280;12394;42.692;23.314;2024-03-25T07:21:28;94071.44;;;11.84
24278;BMP280;12394;42.692;23.314;2024-03-25T07:23:54;94078.19;;;11.52
24278;BMP280;12394;42.692;23.314;2024-03-25T07:26:19;94063.84;;;12.02
24278;BMP280;12394;42.692;23.314;2024-03-25T07:28:45;94074.63;;;12.83
24278;BMP280;12394;42.692;23.314;2024-03-25T07:31:10;94070.91;;;13.44
24278;BMP280;12394;42.692;23.314;2024-03-25T07:33:36;94076.28;;;14.18
24278;BMP280;12394;42.692;23.314;2024-03-25T07:36:01;94065.31;;;14.42
24278;BMP280;12394;42.692;23.314;2024-03-25T07:38:27;94052.13;;;14.63
24278;BMP280;12394;42.692;23.314;2024-03-25T07:40:52;94063.81;;;15.02
24278;BMP280;12394;42.692;23.314;2024-03-25T07:43:18;94059.09;;;14.88
24278;BMP280;12394;42.692;23.314;2024-03-25T07:45:43;94061.63;;;15.10
24278;BMP280;12394;42.692;23.314;2024-03-25T07:48:10;94076.69;;;15.86
24278;BMP280;12394;42.692;23.314;2024-03-25T07:50:37;94077.88;;;15.67
24278;BMP280;12394;42.692;23.314;2024-03-25T07:53:03;94066.25;;;14.48
24278;BMP280;12394;42.692;23.314;2024-03-25T07:55:28;94070.25;;;14.61
24278;BMP280;12394;42.692;23.314;2024-03-25T07:57:54;94071.13;;;15.84
24278;BMP280;12394;42.692;23.314;2024-03-25T08:00:19;94069.59;;;16.37
24278;BMP280;12394;42.692;23.314;2024-03-25T08:02:45;94080.81;;;17.31
24278;BMP280;12394;42.692;23.314;2024-03-25T08:05:12;94074.31;;;17.41
24278;BMP280;12394;42.692;23.314;2024-03-25T08:07:37;94055.94;;;17.70
24278;BMP280;12394;42.692;23.314;2024-03-25T08:10:03;94063.06;;;17.31
24278;BMP280;12394;42.692;23.314;2024-03-25T08:12:29;94072.25;;;17.69
24278;BMP280;12394;42.692;23.314;2024-03-25T08:14:56;94085.56;;;17.98
24278;BMP280;12394;42.692;23.314;2024-03-25T08:17:21;94083.44;;;17.88
24278;BMP280;12394;42.692;23.314;2024-03-25T08:19:48;94079.31;;;18.54
24278;BMP280;12394;42.692;23.314;2024-03-25T08:22:14;94093.44;;;18.81
24278;BMP280;12394;42.692;23.314;2024-03-25T08:24:40;94092.59;;;19.04
24278;BMP280;12394;42.692;23.314;2024-03-25T08:27:05;94099.19;;;19.64
24278;BMP280;12394;42.692;23.314;2024-03-25T08:29:31;94061.38;;;19.89
24278;BMP280;12394;42.692;23.314;2024-03-25T08:31:56;94101.88;;;20.56
24278;BMP280;12394;42.692;23.314;2024-03-25T08:34:22;94117.16;;;21.66
24278;BMP280;12394;42.692;23.314;2024-03-25T08:36:47;94113.72;;;21.60
24278;BMP280;12394;42.692;23.314;2024-03-25T08:39:13;94122.69;;;20.63
24278;BMP280;12394;42.692;23.314;2024-03-25T08:41:39;94100.69;;;21.67
24278;BMP280;12394;42.692;23.314;2024-03-25T08:44:04;94099.72;;;21.22
24278;BMP280;12394;42.692;23.314;2024-03-25T08:46:30;94093.09;;;19.78
24278;BMP280;12394;42.692;23.314;2024-03-25T08:48:55;94107.44;;;18.67
24278;BMP280;12394;42.692;23.314;2024-03-25T08:51:21;94111.19;;;17.68
24278;BMP280;12394;42.692;23.314;2024-03-25T08:53:46;94112.31;;;17.53
24278;BMP280;12394;42.692;23.314;2024-03-25T08:56:12;94117.38;;;18.72
24278;BMP280;12394;42.692;23.314;2024-03-25T08:58:37;94122.53;;;19.25
24278;BMP280;12394;42.692;23.314;2024-03-25T09:01:03;94123.91;;;18.71
24278;BMP280;12394;42.692;23.314;2024-03-25T09:03:28;94124.63;;;18.03
24278;BMP280;12394;42.692;23.314;2024-03-25T09:05:55;94103.91;;;16.37
24278;BMP280;12394;42.692;23.314;2024-03-25T09:08:24;94120.31;;;15.10
24278;BMP280;12394;42.692;23.314;2024-03-25T09:10:49;94107.16;;;14.05
24278;BMP280;12394;42.692;23.314;2024-03-25T09:13:32;94130.50;;;13.34
24278;BMP280;12394;42.692;23.314;2024-03-25T09:15:58;94135.50;;;12.66
24278;BMP280;12394;42.692;23.314;2024-03-25T09:18:23;94119.28;;;13.21
24278;BMP280;12394;42.692;23.314;2024-03-25T09:20:50;94138.66;;;14.52
24278;BMP280;12394;42.692;23.314;2024-03-25T09:23:16;94134.38;;;13.90
24278;BMP280;12394;42.692;23.314;2024-03-25T09:25:51;94118.41;;;12.86
24278;BMP280;12394;42.692;23.314;2024-03-25T09:28:16;94138.94;;;12.50
24278;BMP280;12394;42.692;23.314;2024-03-25T09:30:42;94144.63;;;12.48
24278;BMP280;12394;42.692;23.314;2024-03-25T09:33:07;94131.13;;;12.88
24278;BMP280;12394;42.692;23.314;2024-03-25T09:35:35;94071.63;;;11.60
24278;BMP280;12394;42.692;23.314;2024-03-25T09:38:02;94140.41;;;12.10
24278;BMP280;12394;42.692;23.314;2024-03-25T09:40:28;94137.81;;;12.22
24278;BMP280;12394;42.692;23.314;2024-03-25T09:42:58;94132.16;;;11.95
24278;BMP280;12394;42.692;23.314;2024-03-25T09:45:28;94137.22;;;12.02
24278;BMP280;12394;42.692;23.314;2024-03-25T09:47:55;94133.28;;;12.10
24278;BMP280;12394;42.692;23.314;2024-03-25T09:50:22;94131.03;;;12.25
24278;BMP280;12394;42.692;23.314;2024-03-25T09:52:48;94129.69;;;12.45
24278;BMP280;12394;42.692;23.314;2024-03-25T09:55:14;94127.25;;;12.80
24278;BMP280;12394;42.692;23.314;2024-03-25T09:57:41;94121.25;;;12.92
24278;BMP280;12394;42.692;23.314;2024-03-25T10:00:08;94131.00;;;12.66
24278;BMP280;12394;42.692;23.314;2024-03-25T10:02:38;94134.88;;;12.49
24278;BMP280;12394;42.692;23.314;2024-03-25T10:05:05;94144.09;;;12.12
24278;BMP280;12394;42.692;23.314;2024-03-25T10:07:32;94135.16;;;11.65
24278;BMP280;12394;42.692;23.314;2024-03-25T10:09:58;94144.50;;;11.33
24278;BMP280;12394;42.692;23.314;2024-03-25T10:12:24;94116.41;;;11.01
24278;BMP280;12394;42.692;23.314;2024-03-25T10:14:50;94135.22;;;10.80
24278;BMP280;12394;42.692;23.314;2024-03-25T10:17:16;94146.34;;;10.64
24278;BMP280;12394;42.692;23.314;2024-03-25T10:19:41;94117.59;;;10.64
24278;BMP280;12394;42.692;23.314;2024-03-25T10:22:08;94149.16;;;11.74
24278;BMP280;12394;42.692;23.314;2024-03-25T10:24:44;94138.94;;;11.80
24278;BMP280;12394;42.692;23.314;2024-03-25T10:27:23;94116.00;;;12.13
24278;BMP280;12394;42.692;23.314;2024-03-25T10:29:53;94136.47;;;11.73
24278;BMP280;12394;42.692;23.314;2024-03-25T10:32:19;94139.63;;;11.96
24278;BMP280;12394;42.692;23.314;2024-03-25T10:34:44;94137.69;;;12.13
24278;BMP280;12394;42.692;23.314;2024-03-25T10:37:11;94133.47;;;12.03
24278;BMP280;12394;42.692;23.314;2024-03-25T10:39:55;94136.94;;;11.84
24278;BMP280;12394;42.692;23.314;2024-03-25T10:42:25;94137.63;;;12.29
24278;BMP280;12394;42.692;23.314;2024-03-25T10:44:51;94127.84;;;12.17
24278;BMP280;12394;42.692;23.314;2024-03-25T10:47:23;94137.16;;;12.47
24278;BMP280;12394;42.692;23.314;2024-03-25T10:49:57;94126.59;;;12.88
24278;BMP280;12394;42.692;23.314;2024-03-25T10:52:24;94122.50;;;12.87
24278;BMP280;12394;42.692;23.314;2024-03-25T10:54:50;94133.63;;;13.55
24278;BMP280;12394;42.692;23.314;2024-03-25T10:57:16;94111.91;;;13.76
24278;BMP280;12394;42.692;23.314;2024-03-25T10:59:46;94140.66;;;13.92
24278;BMP280;12394;42.692;23.314;2024-03-25T11:02:12;94136.94;;;13.21
24278;BMP280;12394;42.692;23.314;2024-03-25T11:04:38;94132.38;;;12.58
24278;BMP280;12394;42.692;23.314;2024-03-25T11:07:15;94136.88;;;12.16
24278;BMP280;12394;42.692;23.314;2024-03-25T11:09:42;94134.41;;;12.09
24278;BMP280;12394;42.692;23.314;2024-03-25T11:12:12;94120.38;;;12.03
24278;BMP280;12394;42.692;23.314;2024-03-25T11:14:39;94103.19;;;12.94
24278;BMP280;12394;42.692;23.314;2024-03-25T11:17:14;94120.97;;;13.75
24278;BMP280;12394;42.692;23.314;2024-03-25T11:19:41;94112.13;;;13.34
24278;BMP280;12394;42.692;23.314;2024-03-25T11:22:08;94114.41;;;13.45
24278;BMP280;12394;42.692;23.314;2024-03-25T11:24:35;94126.38;;;13.46
24278;BMP280;12394;42.692;23.314;2024-03-25T11:27:07;94092.78;;;12.65
24278;BMP280;12394;42.692;23.314;2024-03-25T11:29:33;94125.75;;;12.79
24278;BMP280;12394;42.692;23.314;2024-03-25T11:32:03;94134.88;;;12.49
24278;BMP280;12394;42.692;23.314;2024-03-25T11:34:29;94135.00;;;12.17
24278;BMP280;12394;42.692;23.314;2024-03-25T11:36:54;94145.41;;;12.04
24278;BMP280;12394;42.692;23.314;2024-03-25T11:39:22;94151.75;;;12.48
24278;BMP280;12394;42.692;23.314;2024-03-25T11:41:47;94145.81;;;12.31
24278;BMP280;12394;42.692;23.314;2024-03-25T11:44:13;94129.38;;;12.31
24278;BMP280;12394;42.692;23.314;2024-03-25T11:46:39;94145.53;;;12.13
24278;BMP280;12394;42.692;23.314;2024-03-25T11:49:12;94143.81;;;11.78
24278;BMP280;12394;42.692;23.314;2024-03-25T11:51:38;94133.47;;;12.03
24278;BMP280;12394;42.692;23.314;2024-03-25T11:54:27;94137.06;;;12.51
24278;BMP280;12394;42.692;23.314;2024-03-25T11:57:12;94150.84;;;12.26
24278;BMP280;12394;42.692;23.314;2024-03-25T11:59:37;94153.28;;;12.33
24278;BMP280;12394;42.692;23.314;2024-03-25T12:02:06;94157.50;;;12.14
24278;BMP280;12394;42.692;23.314;2024-03-25T12:04:32;94144.34;;;12.01
24278;BMP280;12394;42.692;23.314;2024-03-25T12:06:58;94139.34;;;11.62
24278;BMP280;12394;42.692;23.314;2024-03-25T12:09:24;94157.66;;;11.78
24278;BMP280;12394;42.692;23.314;2024-03-25T12:12:09;94160.03;;;11.56
24278;BMP280;12394;42.692;23.314;2024-03-25T12:14:34;94155.78;;;11.30
24278;BMP280;12394;42.692;23.314;2024-03-25T12:17:01;94151.91;;;11.02
24278;BMP280;12394;42.692;23.314;2024-03-25T12:19:27;94149.53;;;10.92
24278;BMP280;12394;42.692;23.314;2024-03-25T12:22:01;94156.94;;;11.29
24278;BMP280;12394;42.692;23.314;2024-03-25T12:24:27;94153.88;;;11.63
24278;BMP280;12394;42.692;23.314;2024-03-25T12:26:52;94153.41;;;11.20
24278;BMP280;12394;42.692;23.314;2024-03-25T12:29:18;94155.75;;;11.14
24278;BMP280;12394;42.692;23.314;2024-03-25T12:31:53;94152.34;;;11.33
24278;BMP280;12394;42.692;23.314;2024-03-25T12:34:22;94142.28;;;11.15
24278;BMP280;12394;42.692;23.314;2024-03-25T12:36:50;94148.16;;;11.36
24278;BMP280;12394;42.692;23.314;2024-03-25T12:39:19;94162.25;;;11.58
24278;BMP280;12394;42.692;23.314;2024-03-25T12:41:44;94147.44;;;11.51
24278;BMP280;12394;42.692;23.314;2024-03-25T12:44:12;94122.13;;;11.45
24278;BMP280;12394;42.692;23.314;2024-03-25T12:46:38;94152.63;;;12.00
24278;BMP280;12394;42.692;23.314;2024-03-25T12:49:05;94154.31;;;11.78
24278;BMP280;12394;42.692;23.314;2024-03-25T12:51:30;94156.03;;;11.84
24278;BMP280;12394;42.692;23.314;2024-03-25T12:53:56;94167.41;;;11.78
24278;BMP280;12394;42.692;23.314;2024-03-25T12:56:23;94168.66;;;11.73
24278;BMP280;12394;42.692;23.314;2024-03-25T12:58:49;94171.41;;;11.82
24278;BMP280;12394;42.692;23.314;2024-03-25T13:01:14;94186.41;;;11.66
24278;BMP280;12394;42.692;23.314;2024-03-25T13:03:40;94152.69;;;11.35
24278;BMP280;12394;42.692;23.314;2024-03-25T13:06:07;94160.72;;;11.44
24278;BMP280;12394;42.692;23.314;2024-03-25T13:08:33;94169.53;;;11.34
24278;BMP280;12394;42.692;23.314;2024-03-25T13:10:58;94172.78;;;11.22
24278;BMP280;12394;42.692;23.314;2024-03-25T13:13:25;94171.81;;;11.32
24278;BMP280;12394;42.692;23.314;2024-03-25T13:15:50;94170.06;;;10.93
24278;BMP280;12394;42.692;23.314;2024-03-25T13:18:16;94172.75;;;10.90
24278;BMP280;12394;42.692;23.314;2024-03-25T13:20:43;94177.50;;;10.95
24278;BMP280;12394;42.692;23.314;2024-03-25T13:23:09;94162.47;;;10.99
24278;BMP280;12394;42.692;23.314;2024-03-25T13:25:35;94173.22;;;11.21
24278;BMP280;12394;42.692;23.314;2024-03-25T13:28:00;94163.78;;;11.23
24278;BMP280;12394;42.692;23.314;2024-03-25T13:30:26;94167.66;;;11.35
24278;BMP280;12394;42.692;23.314;2024-03-25T13:32:52;94163.22;;;11.32
24278;BMP280;12394;42.692;23.314;2024-03-25T13:35:18;94160.69;;;11.12
24278;BMP280;12394;42.692;23.314;2024-03-25T13:37:43;94159.34;;;11.04
24278;BMP280;12394;42.692;23.314;2024-03-25T13:40:09;94183.47;;;10.95
24278;BMP280;12394;42.692;23.314;2024-03-25T13:42:36;94189.06;;;10.78
24278;BMP280;12394;42.692;23.314;2024-03-25T13:45:03;94196.78;;;10.85
24278;BMP280;12394;42.692;23.314;2024-03-25T13:47:29;94191.59;;;10.81
24278;BMP280;12394;42.692;23.314;2024-03-25T13:50:05;94200.53;;;10.84
24278;BMP280;12394;42.692;23.314;2024-03-25T13:52:33;94187.94;;;10.79
24278;BMP280;12394;42.692;23.314;2024-03-25T13:54:59;94198.03;;;10.77
24278;BMP280;12394;42.692;23.314;2024-03-25T13:57:24;94221.47;;;10.84
24278;BMP280;12394;42.692;23.314;2024-03-25T13:59:50;94227.31;;;10.52
24278;BMP280;12394;42.692;23.314;2024-03-25T14:02:17;94240.19;;;9.96
24278;BMP280;12394;42.692;23.314;2024-03-25T14:04:42;94238.06;;;9.64
24278;BMP280;12394;42.692;23.314;2024-03-25T14:07:08;94253.94;;;9.50
24278;BMP280;12394;42.692;23.314;2024-03-25T14:09:33;94235.88;;;9.09
24278;BMP280;12394;42.692;23.314;2024-03-25T14:11:59;94257.22;;;9.01
24278;BMP280;12394;42.692;23.314;2024-03-25T14:14:25;94265.47;;;8.99
24278;BMP280;12394;42.692;23.314;2024-03-25T14:16:50;94259.97;;;8.90
24278;BMP280;12394;42.692;23.314;2024-03-25T14:19:16;94272.28;;;8.89